Time;durP1;ratioP1;P1;durP2;ratioP2;P2;SDS_P1;SDS_P2;PMS_P1;PMS_P2;Temp;Humidity;BMP_temperature;BMP_pressure;BME280_temperature;BME280_humidity;BME280_pressure;Samples;Min_cycle;Max_cycle;Signal;HPM_P1;HPM_P2
2021/08/22 00:03:17;;;;;;;0.22;0.00;;;;;;;;;;10280818;28;20138;-64
2021/08/22 00:08:21;;;;;;;0.00;0.00;;;;;;;;;;10281925;28;20215;-64
2021/08/22 00:13:24;;;;;;;0.00;0.00;;;;;;;;;;10290300;28;20051;-64
2021/08/22 00:18:28;;;;;;;0.00;0.00;;;;;;;;;;10287651;28;20061;-64
2021/08/22 00:23:32;;;;;;;0.00;0.00;;;;;;;;;;10299161;28;20068;-64
2021/08/22 00:28:35;;;;;;;0.00;0.00;;;;;;;;;;10300984;28;20416;-64
2021/08/22 00:33:39;;;;;;;0.00;0.00;;;;;;;;;;10261684;28;20165;-64
2021/08/22 00:38:44;;;;;;;0.00;0.00;;;;;;;;;;10277858;28;20042;-64
2021/08/22 00:43:47;;;;;;;0.00;0.00;;;;;;;;;;10273986;28;20047;-64
2021/08/22 00:48:52;;;;;;;0.00;0.00;;;;;;;;;;10270129;28;20057;-64
2021/08/22 00:53:56;;;;;;;0.00;0.00;;;;;;;;;;10254737;28;20042;-64
2021/08/22 00:59:01;;;;;;;0.00;0.00;;;;;;;;;;10277929;28;20046;-64
2021/08/22 01:04:07;;;;;;;0.00;0.00;;;;;;;;;;10280229;28;20039;-64
2021/08/22 01:09:15;;;;;;;0.00;0.00;;;;;;;;;;10274132;28;20093;-64
2021/08/22 01:14:21;;;;;;;0.00;0.00;;;;;;;;;;10276637;28;20063;-64
2021/08/22 01:19:29;;;;;;;0.00;0.00;;;;;;;;;;10270967;28;20071;-64
2021/08/22 01:24:34;;;;;;;0.17;0.00;;;;;;;;;;10271188;28;20034;-64
2021/08/22 01:29:39;;;;;;;0.00;0.00;;;;;;;;;;10279031;28;20121;-64
2021/08/22 01:34:44;;;;;;;0.00;0.00;;;;;;;;;;10266915;28;20046;-64
2021/08/22 01:39:47;;;;;;;0.00;0.00;;;;;;;;;;10285708;28;20034;-64
2021/08/22 01:44:50;;;;;;;0.00;0.00;;;;;;;;;;10285296;28;20046;-64
2021/08/22 01:49:55;;;;;;;0.20;0.00;;;;;;;;;;10278898;28;20053;-65
2021/08/22 01:54:58;;;;;;;0.00;0.00;;;;;;;;;;10268375;28;20057;-65
2021/08/22 02:00:01;;;;;;;0.00;0.00;;;;;;;;;;10283028;28;20043;-65
2021/08/22 02:05:15;;;;;;;0.00;0.00;;;;;;;;;;10269477;28;20055;-65
2021/08/22 02:10:21;;;;;;;0.00;0.00;;;;;;;;;;10253303;28;20182;-65
2021/08/22 02:15:26;;;;;;;0.00;0.00;;;;;;;;;;10288494;28;20042;-65
2021/08/22 02:20:30;;;;;;;0.00;0.00;;;;;;;;;;10262882;28;20090;-65
2021/08/22 02:25:33;;;;;;;0.25;0.03;;;;;;;;;;10271177;28;20838;-65
2021/08/22 02:30:37;;;;;;;0.00;0.00;;;;;;;;;;10274443;28;20138;-65
2021/08/22 02:35:41;;;;;;;0.00;0.00;;;;;;;;;;10267680;28;20047;-65
2021/08/22 02:40:44;;;;;;;0.00;0.00;;;;;;;;;;10280646;28;20058;-64
2021/08/22 02:45:47;;;;;;;0.00;0.00;;;;;;;;;;10280525;28;20598;-65
2021/08/22 02:50:51;;;;;;;0.03;0.00;;;;;;;;;;10260047;28;20057;-65
2021/08/22 02:55:55;;;;;;;0.00;0.00;;;;;;;;;;10261995;28;20054;-65
2021/08/22 03:00:57;;;;;;;0.00;0.00;;;;;;;;;;10276633;28;20047;-64
2021/08/22 03:06:02;;;;;;;0.10;0.00;;;;;;;;;;10285130;28;20054;-64
2021/08/22 03:11:05;;;;;;;0.00;0.00;;;;;;;;;;10283298;28;20762;-64
2021/08/22 03:16:07;;;;;;;0.00;0.00;;;;;;;;;;10281096;28;20059;-64
2021/08/22 03:21:12;;;;;;;0.00;0.00;;;;;;;;;;10268731;28;20051;-64
2021/08/22 03:26:17;;;;;;;0.00;0.00;;;;;;;;;;10270522;28;20039;-64
2021/08/22 03:31:20;;;;;;;0.00;0.00;;;;;;;;;;10268451;28;20049;-65
2021/08/22 03:36:24;;;;;;;0.00;0.00;;;;;;;;;;10272714;28;20051;-64
2021/08/22 03:41:27;;;;;;;0.00;0.00;;;;;;;;;;10259974;28;20065;-64
2021/08/22 03:46:30;;;;;;;0.00;0.00;;;;;;;;;;10275099;28;20770;-64
2021/08/22 03:51:34;;;;;;;0.00;0.00;;;;;;;;;;10274167;28;20481;-64
2021/08/22 03:56:37;;;;;;;0.00;0.00;;;;;;;;;;10279102;28;20051;-63
2021/08/22 04:01:40;;;;;;;0.00;0.00;;;;;;;;;;10284283;28;20070;-64
2021/08/22 04:06:56;;;;;;;0.03;0.00;;;;;;;;;;10284177;28;20128;-64
2021/08/22 04:11:59;;;;;;;0.10;0.00;;;;;;;;;;10274885;28;20050;-64
2021/08/22 04:17:02;;;;;;;0.00;0.00;;;;;;;;;;10271823;28;20058;-64
2021/08/22 04:22:07;;;;;;;0.00;0.00;;;;;;;;;;10268265;28;20035;-64
2021/08/22 04:27:10;;;;;;;0.00;0.00;;;;;;;;;;10267837;28;20046;-64
2021/08/22 04:32:12;;;;;;;0.10;0.00;;;;;;;;;;10255106;28;20038;-64
2021/08/22 04:37:18;;;;;;;0.00;0.00;;;;;;;;;;10248104;28;20047;-64
2021/08/22 04:42:21;;;;;;;0.00;0.00;;;;;;;;;;10229183;28;20046;-64
2021/08/22 04:47:23;;;;;;;0.00;0.00;;;;;;;;;;10209553;28;20059;-64
2021/08/22 04:52:27;;;;;;;0.00;0.00;;;;;;;;;;10193654;29;20137;-64
2021/08/22 04:57:31;;;;;;;0.00;0.00;;;;;;;;;;10192152;29;20054;-65
2021/08/22 05:02:33;;;;;;;0.00;0.00;;;;;;;;;;10192009;29;20474;-64
2021/08/22 05:07:38;;;;;;;0.00;0.00;;;;;;;;;;10192920;29;20043;-64
2021/08/22 05:12:41;;;;;;;0.00;0.00;;;;;;;;;;10192370;29;20060;-65
2021/08/22 05:17:45;;;;;;;0.00;0.00;;;;;;;;;;10214675;28;20498;-64
2021/08/22 05:22:49;;;;;;;0.00;0.00;;;;;;;;;;10242539;28;20047;-64
2021/08/22 05:27:53;;;;;;;0.00;0.00;;;;;;;;;;10256316;28;20481;-64
2021/08/22 05:32:56;;;;;;;0.00;0.00;;;;;;;;;;10218897;28;20857;-64
2021/08/22 05:38:00;;;;;;;0.10;0.00;;;;;;;;;;10253112;28;20065;-65
2021/08/22 05:43:03;;;;;;;0.00;0.00;;;;;;;;;;10240965;28;20049;-64
2021/08/22 05:48:05;;;;;;;0.00;0.00;;;;;;;;;;10249634;28;20046;-64
2021/08/22 05:53:09;;;;;;;0.00;0.00;;;;;;;;;;10241692;28;20051;-65
2021/08/22 05:58:12;;;;;;;0.00;0.00;;;;;;;;;;10244166;28;20284;-64
2021/08/22 06:03:15;;;;;;;0.10;0.00;;;;;;;;;;10241388;28;20397;-64
2021/08/22 06:08:20;;;;;;;0.00;0.00;;;;;;;;;;10240380;28;20057;-64
2021/08/22 06:13:22;;;;;;;0.00;0.00;;;;;;;;;;10241128;28;20046;-64
2021/08/22 06:18:25;;;;;;;0.15;0.00;;;;;;;;;;10223552;28;20051;-65
2021/08/22 06:23:29;;;;;;;0.00;0.00;;;;;;;;;;10247437;28;20050;-64
2021/08/22 06:28:32;;;;;;;0.00;0.00;;;;;;;;;;10233579;28;20043;-64
2021/08/22 06:33:35;;;;;;;0.00;0.00;;;;;;;;;;10237802;28;20857;-64
2021/08/22 06:38:39;;;;;;;0.00;0.00;;;;;;;;;;10236593;28;20880;-65
2021/08/22 06:43:42;;;;;;;0.10;0.00;;;;;;;;;;10237190;28;20042;-65
2021/08/22 06:48:44;;;;;;;0.00;0.00;;;;;;;;;;10241300;28;20049;-64
2021/08/22 06:53:49;;;;;;;0.00;0.00;;;;;;;;;;10240614;28;20040;-64
2021/08/22 06:58:52;;;;;;;0.00;0.00;;;;;;;;;;10243804;28;20150;-62
2021/08/22 07:03:55;;;;;;;0.00;0.00;;;;;;;;;;10241768;28;20511;-62
2021/08/22 07:08:59;;;;;;;0.00;0.00;;;;;;;;;;10249427;28;20906;-64
2021/08/22 07:14:02;;;;;;;0.00;0.00;;;;;;;;;;10242612;28;20058;-63
2021/08/22 07:19:07;;;;;;;0.00;0.00;;;;;;;;;;10248634;28;20057;-64
2021/08/22 07:24:11;;;;;;;0.00;0.00;;;;;;;;;;10257643;28;20072;-65
2021/08/22 07:29:14;;;;;;;0.35;0.00;;;;;;;;;;10267957;28;20129;-67
2021/08/22 07:34:16;;;;;;;0.00;0.00;;;;;;;;;;10230618;28;20512;-64
2021/08/22 07:39:21;;;;;;;0.00;0.00;;;;;;;;;;10224811;28;20070;-65
2021/08/22 07:44:24;;;;;;;0.00;0.00;;;;;;;;;;10239278;28;20045;-66
2021/08/22 07:49:27;;;;;;;0.00;0.00;;;;;;;;;;10250559;28;20114;-62
2021/08/22 07:54:31;;;;;;;0.00;0.00;;;;;;;;;;10251761;28;20051;-62
2021/08/22 07:59:34;;;;;;;0.00;0.00;;;;;;;;;;10243220;28;20224;-62
2021/08/22 08:04:37;;;;;;;0.00;0.00;;;;;;;;;;10239117;28;20050;-62
2021/08/22 08:09:41;;;;;;;0.00;0.00;;;;;;;;;;10250785;28;20051;-62
2021/08/22 08:14:44;;;;;;;0.00;0.00;;;;;;;;;;10251035;28;20054;-62
2021/08/22 08:19:46;;;;;;;0.00;0.00;;;;;;;;;;10244967;28;20528;-62
2021/08/22 08:24:51;;;;;;;0.00;0.00;;;;;;;;;;10249057;28;20799;-62
2021/08/22 08:29:55;;;;;;;0.00;0.00;;;;;;;;;;10222584;28;20047;-63
2021/08/22 08:34:58;;;;;;;0.00;0.00;;;;;;;;;;10242855;28;20058;-61
2021/08/22 08:40:04;;;;;;;0.00;0.00;;;;;;;;;;10245439;28;20737;-62
2021/08/22 08:45:10;;;;;;;0.00;0.00;;;;;;;;;;10242534;28;20146;-62
2021/08/22 08:50:15;;;;;;;0.00;0.00;;;;;;;;;;10240768;28;20790;-62
2021/08/22 08:55:23;;;;;;;0.00;0.00;;;;;;;;;;10240054;28;20483;-63
2021/08/22 09:00:26;;;;;;;0.00;0.00;;;;;;;;;;10251569;28;20046;-63
2021/08/22 09:05:53;;;;;;;0.00;0.00;;;;;;;;;;10257918;28;20043;-61
2021/08/22 09:11:13;;;;;;;0.00;0.00;;;;;;;;;;10165117;28;20133;-61
2021/08/22 09:16:35;;;;;;;0.00;0.00;;;;;;;;;;10253620;28;20122;-62
2021/08/22 09:21:38;;;;;;;;;;;;;;;;;;10234987;28;20838;-62
2021/08/22 09:27:01;;;;;;;0.00;0.00;;;;;;;;;;10238689;28;20289;-62
2021/08/22 09:32:23;;;;;;;0.00;0.00;;;;;;;;;;10226515;28;20051;-62
2021/08/22 09:37:26;;;;;;;;;;;;;;;;;;10257245;28;20057;-63
2021/08/22 09:42:56;;;;;;;0.00;0.00;;;;;;;;;;10241507;28;19926;-62
2021/08/22 09:48:17;;;;;;;0.00;0.00;;;;;;;;;;10249023;28;20170;-62
2021/08/22 09:53:39;;;;;;;0.00;0.00;;;;;;;;;;10245906;28;20054;-62
2021/08/22 09:58:57;;;;;;;0.00;0.00;;;;;;;;;;10218583;28;20118;-62
2021/08/22 10:04:21;;;;;;;0.00;0.00;;;;;;;;;;10199380;28;20081;-61
2021/08/22 10:09:25;;;;;;;0.00;0.00;;;;;;;;;;10233677;28;20402;-61
2021/08/22 10:14:28;;;;;;;0.00;0.00;;;;;;;;;;10235638;28;20378;-61
2021/08/22 10:19:31;;;;;;;0.00;0.00;;;;;;;;;;10233178;28;20059;-62
2021/08/22 10:24:45;;;;;;;0.00;0.00;;;;;;;;;;10231683;28;20050;-62
2021/08/22 10:30:06;;;;;;;0.00;0.00;;;;;;;;;;10230031;28;20135;-62
2021/08/22 10:35:21;;;;;;;0.00;0.00;;;;;;;;;;10219656;28;20333;-63
2021/08/22 10:40:39;;;;;;;0.00;0.00;;;;;;;;;;10229522;28;20076;-62
2021/08/22 10:45:42;;;;;;;0.00;0.00;;;;;;;;;;10229030;28;20493;-61
2021/08/22 10:51:09;;;;;;;0.00;0.00;;;;;;;;;;10232516;28;20538;-63
2021/08/22 10:56:44;;;;;;;0.00;0.00;;;;;;;;;;10230788;28;20047;-64
2021/08/22 11:01:48;;;;;;;0.00;0.00;;;;;;;;;;10110128;29;20052;-62
2021/08/22 11:06:59;;;;;;;0.00;0.00;;;;;;;;;;10221502;28;20532;-62
2021/08/22 11:12:02;;;;;;;0.00;0.00;;;;;;;;;;10211418;28;20466;-65
2021/08/22 11:17:06;;;;;;;0.00;0.00;;;;;;;;;;10231640;28;20449;-64
2021/08/22 11:22:20;;;;;;;0.00;0.00;;;;;;;;;;10228499;28;20070;-63
2021/08/22 11:27:23;;;;;;;0.00;0.00;;;;;;;;;;10230719;28;20036;-63
2021/08/22 11:32:29;;;;;;;0.00;0.00;;;;;;;;;;10228874;28;20051;-64
2021/08/22 11:37:32;;;;;;;0.00;0.00;;;;;;;;;;10234566;28;20859;-65
2021/08/22 11:42:35;;;;;;;0.00;0.00;;;;;;;;;;10232321;28;20070;-65
2021/08/22 11:47:39;;;;;;;0.00;0.00;;;;;;;;;;10229616;28;20054;-65
2021/08/22 11:52:43;;;;;;;0.00;0.00;;;;;;;;;;10230671;28;20049;-64
2021/08/22 11:57:46;;;;;;;0.00;0.00;;;;;;;;;;10231069;28;20480;-65
2021/08/22 12:02:57;;;;;;;0.35;0.00;;;;;;;;;;10225775;28;20362;-64
2021/08/22 12:08:03;;;;;;;0.00;0.00;;;;;;;;;;10231688;28;20051;-65
2021/08/22 12:13:14;;;;;;;0.00;0.00;;;;;;;;;;10233028;28;20088;-62
2021/08/22 12:18:19;;;;;;;0.00;0.00;;;;;;;;;;10239711;28;20066;-62
2021/08/22 12:23:29;;;;;;;0.00;0.00;;;;;;;;;;10229196;28;20047;-62
2021/08/22 12:28:32;;;;;;;0.00;0.00;;;;;;;;;;10233898;28;20126;-63
2021/08/22 12:33:37;;;;;;;0.00;0.00;;;;;;;;;;10231162;28;20526;-63
2021/08/22 12:38:56;;;;;;;0.00;0.00;;;;;;;;;;10232890;28;20051;-63
2021/08/22 12:44:01;;;;;;;0.00;0.00;;;;;;;;;;10236642;28;20139;-63
2021/08/22 12:49:06;;;;;;;0.00;0.00;;;;;;;;;;10251151;28;20074;-63
2021/08/22 12:54:09;;;;;;;0.00;0.00;;;;;;;;;;10239921;28;20047;-63
2021/08/22 12:59:12;;;;;;;0.10;0.00;;;;;;;;;;10235738;28;20055;-63
2021/08/22 13:04:17;;;;;;;0.00;0.00;;;;;;;;;;10237409;28;20070;-64
2021/08/22 13:09:22;;;;;;;0.00;0.00;;;;;;;;;;10239505;28;20694;-63
2021/08/22 13:14:25;;;;;;;0.00;0.00;;;;;;;;;;10232513;28;20622;-63
2021/08/22 13:19:29;;;;;;;0.00;0.00;;;;;;;;;;10233222;28;20414;-64
2021/08/22 13:24:33;;;;;;;0.00;0.00;;;;;;;;;;10228516;28;20051;-64
2021/08/22 13:29:37;;;;;;;0.10;0.00;;;;;;;;;;10234340;28;20515;-64
2021/08/22 13:34:41;;;;;;;0.00;0.00;;;;;;;;;;10214817;28;20051;-63
2021/08/22 13:39:44;;;;;;;0.00;0.00;;;;;;;;;;10231811;28;20047;-63
2021/08/22 13:44:48;;;;;;;0.00;0.00;;;;;;;;;;10230001;28;20501;-63
2021/08/22 13:49:52;;;;;;;0.00;0.00;;;;;;;;;;10232910;28;20047;-62
2021/08/22 13:54:55;;;;;;;0.00;0.00;;;;;;;;;;10222988;28;20047;-64
2021/08/22 14:00:00;;;;;;;0.00;0.00;;;;;;;;;;10226624;28;20059;-63
2021/08/22 14:05:05;;;;;;;0.00;0.00;;;;;;;;;;10229074;28;20900;-63
2021/08/22 14:10:08;;;;;;;0.00;0.00;;;;;;;;;;10250973;28;20189;-63
2021/08/22 14:15:12;;;;;;;0.00;0.00;;;;;;;;;;10262031;28;20038;-63
2021/08/22 14:20:17;;;;;;;0.00;0.00;;;;;;;;;;10279564;28;20141;-63
2021/08/22 14:25:21;;;;;;;0.00;0.00;;;;;;;;;;10263481;28;20491;-64
2021/08/22 14:30:23;;;;;;;0.00;0.00;;;;;;;;;;10264366;28;20049;-64
2021/08/22 14:35:28;;;;;;;0.00;0.00;;;;;;;;;;10241896;28;20046;-63
2021/08/22 14:40:30;;;;;;;0.00;0.00;;;;;;;;;;10246756;28;20057;-63
2021/08/22 14:45:34;;;;;;;0.00;0.00;;;;;;;;;;10255922;28;20039;-63
2021/08/22 14:50:39;;;;;;;0.00;0.00;;;;;;;;;;10257097;28;20074;-63
2021/08/22 14:55:41;;;;;;;0.00;0.00;;;;;;;;;;10255275;28;20897;-64
2021/08/22 15:00:45;;;;;;;0.00;0.00;;;;;;;;;;10236337;28;20057;-64
2021/08/22 15:05:51;;;;;;;0.00;0.00;;;;;;;;;;10262774;28;20141;-63
2021/08/22 15:10:53;;;;;;;0.00;0.00;;;;;;;;;;10260282;28;20050;-63
2021/08/22 15:15:56;;;;;;;0.00;0.00;;;;;;;;;;10257386;28;20058;-63
2021/08/22 15:21:00;;;;;;;0.00;0.00;;;;;;;;;;10239766;28;20104;-63
2021/08/22 15:26:04;;;;;;;0.00;0.00;;;;;;;;;;10266834;28;20141;-62
2021/08/22 15:31:07;;;;;;;0.00;0.00;;;;;;;;;;10259982;28;20057;-63
2021/08/22 15:36:11;;;;;;;0.00;0.00;;;;;;;;;;10268758;28;20131;-63
2021/08/22 15:41:14;;;;;;;0.00;0.00;;;;;;;;;;10242805;28;20055;-63
2021/08/22 15:46:18;;;;;;;0.00;0.00;;;;;;;;;;10266453;28;20784;-63
2021/08/22 15:51:23;;;;;;;0.00;0.00;;;;;;;;;;10273449;28;20049;-63
2021/08/22 15:56:26;;;;;;;0.00;0.00;;;;;;;;;;10283574;28;20849;-64
2021/08/22 16:01:29;;;;;;;0.00;0.00;;;;;;;;;;10279229;28;20054;-63
2021/08/22 16:06:34;;;;;;;0.00;0.00;;;;;;;;;;10288467;28;20050;-63
2021/08/22 16:11:40;;;;;;;0.00;0.00;;;;;;;;;;10266663;28;20058;-64
2021/08/22 16:16:42;;;;;;;0.00;0.00;;;;;;;;;;10277743;28;20509;-68
2021/08/22 16:21:47;;;;;;;0.00;0.00;;;;;;;;;;10265551;28;20050;-77
2021/08/22 16:26:50;;;;;;;0.28;0.00;;;;;;;;;;10268617;28;20090;-74
2021/08/22 16:31:52;;;;;;;0.00;0.00;;;;;;;;;;10260751;28;20046;-73
2021/08/22 16:36:57;;;;;;;0.00;0.00;;;;;;;;;;10270020;28;20035;-72
2021/08/22 16:42:01;;;;;;;0.00;0.00;;;;;;;;;;10269286;28;20066;-76
2021/08/22 16:47:04;;;;;;;0.00;0.00;;;;;;;;;;10276865;28;20047;-73
2021/08/22 16:52:08;;;;;;;0.00;0.00;;;;;;;;;;10274197;28;20075;-68
2021/08/22 16:57:11;;;;;;;0.00;0.00;;;;;;;;;;10271006;28;20042;-68
2021/08/22 17:02:14;;;;;;;0.22;0.00;;;;;;;;;;10277666;28;20050;-70
2021/08/22 17:07:18;;;;;;;0.00;0.00;;;;;;;;;;10276367;28;20533;-68
2021/08/22 17:12:21;;;;;;;0.00;0.00;;;;;;;;;;10274959;28;20169;-72
2021/08/22 17:17:23;;;;;;;0.28;0.10;;;;;;;;;;10275934;28;20129;-69
2021/08/22 17:22:29;;;;;;;0.03;0.03;;;;;;;;;;10277620;28;20057;-75
2021/08/22 17:27:32;;;;;;;0.00;0.00;;;;;;;;;;10275215;28;20125;-70
2021/08/22 17:32:38;;;;;;;0.00;0.00;;;;;;;;;;10258201;28;20519;-70
2021/08/22 17:37:42;;;;;;;0.00;0.00;;;;;;;;;;10262466;28;20508;-76
2021/08/22 17:42:45;;;;;;;0.00;0.00;;;;;;;;;;10276678;28;20042;-71
2021/08/22 17:47:48;;;;;;;0.00;0.00;;;;;;;;;;10268191;28;20045;-70
2021/08/22 17:52:53;;;;;;;0.00;0.00;;;;;;;;;;10259671;28;20097;-73
2021/08/22 17:57:56;;;;;;;0.00;0.00;;;;;;;;;;10241208;28;20058;-69
2021/08/22 18:02:58;;;;;;;0.00;0.00;;;;;;;;;;10275472;28;20042;-68
2021/08/22 18:08:04;;;;;;;0.00;0.00;;;;;;;;;;10260738;28;20053;-71
2021/08/22 18:13:07;;;;;;;0.00;0.00;;;;;;;;;;10278146;28;20038;-69
2021/08/22 18:18:10;;;;;;;0.00;0.00;;;;;;;;;;10274239;28;20131;-72
2021/08/22 18:23:15;;;;;;;0.00;0.00;;;;;;;;;;10284498;28;20129;-73
2021/08/22 18:28:20;;;;;;;0.00;0.00;;;;;;;;;;10255096;28;20055;-74
2021/08/22 18:33:26;;;;;;;0.08;0.08;;;;;;;;;;10272959;28;20112;-67
2021/08/22 18:38:31;;;;;;;0.00;0.00;;;;;;;;;;10274206;28;20074;-72
2021/08/22 18:43:37;;;;;;;0.00;0.00;;;;;;;;;;10277603;28;20060;-68
2021/08/22 18:48:42;;;;;;;0.00;0.00;;;;;;;;;;10286719;28;20589;-75
2021/08/22 18:53:46;;;;;;;0.00;0.00;;;;;;;;;;10282821;28;20096;-71
2021/08/22 18:58:49;;;;;;;0.00;0.00;;;;;;;;;;10283482;28;20053;-71
2021/08/22 19:03:52;;;;;;;0.00;0.00;;;;;;;;;;10249590;28;20511;-71
2021/08/22 19:08:59;;;;;;;0.00;0.00;;;;;;;;;;10281423;28;20053;-69
2021/08/22 19:14:02;;;;;;;0.00;0.00;;;;;;;;;;10278248;28;20107;-70
2021/08/22 19:19:05;;;;;;;0.00;0.00;;;;;;;;;;10288114;28;20065;-69
2021/08/22 19:24:12;;;;;;;0.00;0.00;;;;;;;;;;10284508;28;20046;-69
2021/08/22 19:29:17;;;;;;;0.00;0.00;;;;;;;;;;10282439;28;20034;-72
2021/08/22 19:34:21;;;;;;;0.00;0.00;;;;;;;;;;10281804;28;20096;-73
2021/08/22 19:39:25;;;;;;;0.00;0.00;;;;;;;;;;10282873;28;20047;-68
2021/08/22 19:44:28;;;;;;;0.20;0.00;;;;;;;;;;10279501;28;20038;-71
2021/08/22 19:49:31;;;;;;;0.00;0.00;;;;;;;;;;10277485;28;20039;-73
2021/08/22 19:54:35;;;;;;;0.00;0.00;;;;;;;;;;10278703;28;20386;-70
2021/08/22 19:59:38;;;;;;;0.00;0.00;;;;;;;;;;10271717;28;20049;-72
2021/08/22 20:04:42;;;;;;;0.00;0.00;;;;;;;;;;10287378;28;20889;-70
2021/08/22 20:09:46;;;;;;;0.00;0.00;;;;;;;;;;10268706;28;20837;-69
2021/08/22 20:14:49;;;;;;;0.10;0.10;;;;;;;;;;10278133;28;20050;-71
2021/08/22 20:19:52;;;;;;;0.00;0.00;;;;;;;;;;10257929;28;20047;-71
2021/08/22 20:24:57;;;;;;;0.00;0.00;;;;;;;;;;10260114;28;20061;-71
2021/08/22 20:30:00;;;;;;;0.00;0.00;;;;;;;;;;10282394;28;20035;-69
2021/08/22 20:35:03;;;;;;;0.00;0.00;;;;;;;;;;10277831;28;20038;-69
2021/08/22 20:40:08;;;;;;;0.00;0.00;;;;;;;;;;10276751;28;20524;-69
2021/08/22 20:45:11;;;;;;;0.00;0.00;;;;;;;;;;10282948;28;20592;-68
2021/08/22 20:50:14;;;;;;;0.00;0.00;;;;;;;;;;10263330;28;20117;-70
2021/08/22 20:55:19;;;;;;;0.00;0.00;;;;;;;;;;10275322;28;20043;-69
2021/08/22 21:00:22;;;;;;;0.00;0.00;;;;;;;;;;10283509;28;20074;-70
2021/08/22 21:05:25;;;;;;;0.00;0.00;;;;;;;;;;10282127;28;20046;-69
2021/08/22 21:10:29;;;;;;;0.00;0.00;;;;;;;;;;10276663;28;20221;-67
2021/08/22 21:15:32;;;;;;;0.00;0.00;;;;;;;;;;10287858;28;20058;-69
2021/08/22 21:20:35;;;;;;;0.00;0.00;;;;;;;;;;10282341;28;20583;-70
2021/08/22 21:25:39;;;;;;;0.00;0.00;;;;;;;;;;10287532;28;20501;-70
2021/08/22 21:30:42;;;;;;;0.00;0.00;;;;;;;;;;10281203;28;20049;-69
2021/08/22 21:35:45;;;;;;;0.00;0.00;;;;;;;;;;10280353;28;20421;-69
2021/08/22 21:40:55;;;;;;;0.00;0.00;;;;;;;;;;10287828;28;20043;-69
2021/08/22 21:45:58;;;;;;;0.00;0.00;;;;;;;;;;10284839;28;20134;-70
2021/08/22 21:51:01;;;;;;;0.00;0.00;;;;;;;;;;10286024;28;20849;-69
2021/08/22 21:56:06;;;;;;;0.00;0.00;;;;;;;;;;10275211;28;20125;-69
2021/08/22 22:01:09;;;;;;;0.00;0.00;;;;;;;;;;10286102;28;20051;-68
2021/08/22 22:06:12;;;;;;;0.08;0.08;;;;;;;;;;10280664;28;20137;-69
2021/08/22 22:11:16;;;;;;;0.00;0.00;;;;;;;;;;10281532;28;20042;-69
2021/08/22 22:16:19;;;;;;;0.00;0.00;;;;;;;;;;10285026;28;20063;-69
2021/08/22 22:21:22;;;;;;;0.00;0.00;;;;;;;;;;10281844;28;20049;-69
2021/08/22 22:26:26;;;;;;;0.00;0.00;;;;;;;;;;10282753;28;20050;-68
2021/08/22 22:31:29;;;;;;;0.00;0.00;;;;;;;;;;10284748;28;20045;-68
2021/08/22 22:36:32;;;;;;;0.00;0.00;;;;;;;;;;10284353;28;20054;-68
2021/08/22 22:41:36;;;;;;;0.00;0.00;;;;;;;;;;10281177;28;20038;-69
2021/08/22 22:46:39;;;;;;;0.00;0.00;;;;;;;;;;10281784;28;20065;-69
2021/08/22 22:51:42;;;;;;;0.00;0.00;;;;;;;;;;10286686;28;20053;-69
2021/08/22 22:56:46;;;;;;;0.00;0.00;;;;;;;;;;10290207;28;20043;-69
2021/08/22 23:01:49;;;;;;;0.00;0.00;;;;;;;;;;10282986;28;20047;-70
2021/08/22 23:06:52;;;;;;;0.00;0.00;;;;;;;;;;10269105;28;20085;-71
2021/08/22 23:11:56;;;;;;;0.00;0.00;;;;;;;;;;10272888;28;20042;-71
2021/08/22 23:16:59;;;;;;;0.00;0.00;;;;;;;;;;10287579;28;20055;-72
2021/08/22 23:22:02;;;;;;;0.00;0.00;;;;;;;;;;10293086;28;20050;-72
2021/08/22 23:27:06;;;;;;;0.10;0.10;;;;;;;;;;10285292;28;20397;-72
2021/08/22 23:32:09;;;;;;;0.00;0.00;;;;;;;;;;10283320;28;20572;-72
2021/08/22 23:37:11;;;;;;;0.00;0.00;;;;;;;;;;10284519;28;20513;-72
2021/08/22 23:42:16;;;;;;;0.00;0.00;;;;;;;;;;10287184;28;20042;-72
2021/08/22 23:47:18;;;;;;;0.00;0.00;;;;;;;;;;10273102;28;20070;-72
2021/08/22 23:52:21;;;;;;;0.00;0.00;;;;;;;;;;10286116;28;20811;-72
2021/08/22 23:57:25;;;;;;;0.00;0.00;;;;;;;;;;10291632;28;20049;-73
